Time;durP1;ratioP1;P1;durP2;ratioP2;P2;SDS_P1;SDS_P2;PMS_P1;PMS_P2;Temp;Humidity;BMP_temperature;BMP_pressure;BME280_temperature;BME280_humidity;BME280_pressure;Samples;Min_cycle;Max_cycle;Signal;HPM_P1;HPM_P2
2023/06/11 00:00:28;;;;;;;7.50;4.35;;;;;;;16.90;100.00;101648.28;5075281;28;20072;-80
2023/06/11 00:02:56;;;;;;;6.80;4.00;;;;;;;16.88;100.00;101650.28;5075364;28;20161;-81
2023/06/11 00:05:24;;;;;;;6.90;3.92;;;;;;;16.85;100.00;101647.88;5094099;28;20032;-80
2023/06/11 00:07:50;;;;;;;8.18;4.25;;;;;;;16.81;100.00;101642.97;5092749;28;20038;-80
2023/06/11 00:10:16;;;;;;;8.02;4.50;;;;;;;16.77;100.00;101653.22;5093168;28;20111;-80
2023/06/11 00:12:42;;;;;;;8.07;4.53;;;;;;;16.71;100.00;101646.63;5092748;28;20063;-80
2023/06/11 00:15:08;;;;;;;6.75;4.70;;;;;;;16.70;100.00;101649.47;5092746;28;20056;-81
2023/06/11 00:17:33;;;;;;;6.95;4.22;;;;;;;16.67;100.00;101647.13;5092477;28;20432;-80
2023/06/11 00:20:03;;;;;;;6.68;4.70;;;;;;;16.65;100.00;101651.81;5092747;28;20114;-81
2023/06/11 00:22:31;;;;;;;8.80;4.90;;;;;;;16.62;100.00;101646.75;5092702;28;20032;-80
2023/06/11 00:24:57;;;;;;;7.50;4.43;;;;;;;16.57;100.00;101647.25;5092842;28;20487;-80
2023/06/11 00:27:22;;;;;;;8.38;4.40;;;;;;;16.55;100.00;101642.00;5092317;28;20043;-80
2023/06/11 00:29:48;;;;;;;7.97;3.97;;;;;;;16.51;100.00;101643.34;5092792;28;20115;-80
2023/06/11 00:32:13;;;;;;;12.82;4.53;;;;;;;16.48;100.00;101643.66;5092676;28;20046;-80
2023/06/11 00:34:39;;;;;;;8.10;4.28;;;;;;;16.45;100.00;101643.97;5092764;28;20028;-81
2023/06/11 00:37:04;;;;;;;6.13;4.10;;;;;;;16.39;100.00;101642.75;5091920;28;20036;-81
2023/06/11 00:39:29;;;;;;;7.70;4.60;;;;;;;16.36;100.00;101648.44;5092324;28;20036;-81
2023/06/11 00:41:57;;;;;;;6.00;4.32;;;;;;;16.34;100.00;101646.91;5074593;28;20074;-81
2023/06/11 00:44:22;;;;;;;7.47;4.22;;;;;;;16.30;100.00;101648.22;5092597;28;20029;-81
2023/06/11 00:46:51;;;;;;;9.40;4.25;;;;;;;16.25;100.00;101651.38;5074747;28;20043;-81
2023/06/11 00:49:17;;;;;;;5.95;3.97;;;;;;;16.22;100.00;101643.63;5092870;28;20110;-80
2023/06/11 00:51:45;;;;;;;8.48;4.35;;;;;;;16.18;100.00;101645.81;5092487;28;20062;-80
2023/06/11 00:54:12;;;;;;;6.00;4.20;;;;;;;16.14;100.00;101636.38;5092797;28;20432;-80
2023/06/11 00:56:41;;;;;;;8.05;4.22;;;;;;;16.10;100.00;101632.31;5092710;28;20032;-80
2023/06/11 00:59:07;;;;;;;10.38;4.55;;;;;;;16.07;100.00;101631.78;5092874;28;20024;-80
2023/06/11 01:01:41;;;;;;;6.53;4.63;;;;;;;16.04;100.00;101633.78;5073825;28;20067;-80
2023/06/11 01:04:13;;;;;;;6.55;4.05;;;;;;;16.02;100.00;101638.47;5092667;28;20032;-80
2023/06/11 01:06:46;;;;;;;9.90;5.13;;;;;;;15.99;100.00;101633.41;5092938;28;20092;-80
2023/06/11 01:09:12;;;;;;;6.78;4.50;;;;;;;15.96;100.00;101633.72;5092275;28;20486;-80
2023/06/11 01:11:38;;;;;;;10.93;4.32;;;;;;;15.94;100.00;101635.69;5074601;28;20051;-80
2023/06/11 01:14:05;;;;;;;10.48;4.72;;;;;;;15.91;100.00;101633.31;5092200;28;20032;-80
2023/06/11 01:16:44;;;;;;;7.93;4.68;;;;;;;15.90;100.00;101630.78;5092468;28;20038;-80
2023/06/11 01:20:10;;;;;;;6.97;4.10;;;;;;;15.86;100.00;101622.22;5074074;28;20467;-80
2023/06/11 01:23:00;;;;;;;7.10;4.45;;;;;;;15.83;100.00;101630.59;4990349;28;20088;-80
2023/06/11 01:25:37;;;;;;;7.63;4.47;;;;;;;15.81;100.00;101619.19;5091627;28;20476;-79
2023/06/11 01:28:08;;;;;;;5.50;4.10;;;;;;;15.75;100.00;101619.75;5092278;28;20445;-79
2023/06/11 01:30:37;;;;;;;5.57;4.40;;;;;;;15.71;100.00;101624.56;5057240;28;20132;-79
2023/06/11 01:33:03;;;;;;;7.40;4.68;;;;;;;15.67;100.00;101623.19;5092404;28;20087;-79
2023/06/11 01:35:29;;;;;;;9.40;4.75;;;;;;;15.66;100.00;101621.53;5092687;28;20108;-80
2023/06/11 01:37:55;;;;;;;7.05;4.30;;;;;;;15.63;100.00;101614.63;5057044;28;20470;-79
2023/06/11 01:40:24;;;;;;;7.28;4.70;;;;;;;15.60;100.00;101620.28;5074430;28;20074;-81
2023/06/11 01:42:50;;;;;;;6.15;4.82;;;;;;;15.58;100.00;101618.75;5073693;28;20032;-80
2023/06/11 01:45:19;;;;;;;7.05;4.78;;;;;;;15.55;100.00;101616.38;5092626;28;20115;-80
2023/06/11 01:47:48;;;;;;;6.72;4.30;;;;;;;15.51;100.00;101619.38;5091777;28;20032;-80
2023/06/11 01:50:14;;;;;;;8.20;4.70;;;;;;;15.48;100.00;101611.63;5059345;28;20371;-80
2023/06/11 01:52:40;;;;;;;7.35;4.53;;;;;;;15.46;100.00;101615.44;5095612;28;20055;-80
2023/06/11 01:55:07;;;;;;;6.90;4.72;;;;;;;15.44;100.00;101612.94;5096270;28;20429;-80
2023/06/11 01:57:35;;;;;;;6.97;4.40;;;;;;;15.42;100.00;101611.38;5077578;28;20361;-80
2023/06/11 02:00:04;;;;;;;7.25;4.72;;;;;;;15.38;100.00;101613.53;5095115;28;20036;-80
2023/06/11 02:02:31;;;;;;;8.10;4.90;;;;;;;15.35;100.00;101616.53;5077541;28;20047;-80
2023/06/11 02:04:57;;;;;;;7.13;4.40;;;;;;;15.30;100.00;101608.94;5095273;28;20480;-80
2023/06/11 02:07:22;;;;;;;7.15;4.47;;;;;;;15.28;100.00;101612.75;5095193;28;20060;-81
2023/06/11 02:09:48;;;;;;;6.95;4.78;;;;;;;15.24;100.00;101619.41;5077162;28;20143;-81
2023/06/11 02:12:14;;;;;;;6.38;4.65;;;;;;;15.21;100.00;101612.53;5095307;28;20077;-81
2023/06/11 02:14:39;;;;;;;7.20;4.35;;;;;;;15.18;100.00;101620.00;5095106;28;20043;-81
2023/06/11 02:17:04;;;;;;;12.60;5.30;;;;;;;15.16;100.00;101618.31;5095160;28;20475;-79
2023/06/11 02:19:30;;;;;;;6.78;4.78;;;;;;;15.14;100.00;101617.63;5095158;28;20131;-79
2023/06/11 02:21:55;;;;;;;6.88;4.97;;;;;;;15.11;100.00;101623.28;5095410;28;20050;-79
2023/06/11 02:24:21;;;;;;;8.50;5.15;;;;;;;15.07;100.00;101621.91;5094869;28;20030;-80
2023/06/11 02:26:46;;;;;;;5.63;4.65;;;;;;;15.04;100.00;101632.91;5095767;28;20024;-80
2023/06/11 02:29:11;;;;;;;10.52;5.13;;;;;;;15.02;100.00;101618.84;5076917;28;20452;-80
2023/06/11 02:31:36;;;;;;;9.80;5.75;;;;;;;14.99;100.00;101619.97;5076989;28;20043;-80
2023/06/11 02:34:02;;;;;;;6.30;5.00;;;;;;;14.97;100.00;101623.78;5076266;28;20470;-80
2023/06/11 02:36:27;;;;;;;9.35;5.50;;;;;;;14.96;100.00;101632.84;5094880;28;20361;-80
2023/06/11 02:38:53;;;;;;;12.38;5.20;;;;;;;14.94;100.00;101624.94;5094463;28;20036;-79
2023/06/11 02:41:18;;;;;;;6.93;5.25;;;;;;;14.92;100.00;101623.41;5094218;28;20028;-80
2023/06/11 02:43:43;;;;;;;8.63;5.68;;;;;;;14.90;100.00;101628.91;5076055;28;20059;-79
2023/06/11 02:46:09;;;;;;;12.57;6.35;;;;;;;14.89;100.00;101635.25;5094441;28;20381;-80
2023/06/11 02:48:34;;;;;;;8.90;5.63;;;;;;;14.87;100.00;101629.22;5094558;28;20050;-79
2023/06/11 02:51:00;;;;;;;9.27;6.03;;;;;;;14.86;100.00;101626.69;5094214;28;20097;-80
2023/06/11 02:53:25;;;;;;;9.90;6.38;;;;;;;14.86;100.00;101629.34;5094498;28;20039;-79
2023/06/11 02:55:50;;;;;;;7.80;5.88;;;;;;;14.85;100.00;101631.16;5093823;28;20058;-80
2023/06/11 02:58:16;;;;;;;7.43;6.07;;;;;;;14.87;100.00;101631.03;5094080;28;20115;-79
2023/06/11 03:00:41;;;;;;;9.48;6.15;;;;;;;14.85;100.00;101628.50;5072073;28;20102;-79
2023/06/11 03:03:08;;;;;;;7.78;5.70;;;;;;;14.84;100.00;101626.81;5073542;28;20550;-79
2023/06/11 03:05:33;;;;;;;11.95;6.38;;;;;;;14.81;100.00;101629.81;5072503;28;20024;-80
2023/06/11 03:07:58;;;;;;;11.45;5.88;;;;;;;14.81;100.00;101625.28;5074662;28;20115;-80
2023/06/11 03:10:27;;;;;;;7.57;5.50;;;;;;;14.78;100.00;101614.84;5074972;28;20111;-80
2023/06/11 03:12:53;;;;;;;7.43;5.43;;;;;;;14.74;100.00;101620.66;5074644;28;20035;-80
2023/06/11 03:15:18;;;;;;;10.10;5.72;;;;;;;14.73;100.00;101619.78;5074373;28;20029;-80
2023/06/11 03:17:44;;;;;;;10.45;6.43;;;;;;;14.71;100.00;101621.78;5072564;28;20094;-79
2023/06/11 03:20:10;;;;;;;9.00;6.45;;;;;;;14.71;100.00;101619.13;5073459;28;20070;-79
2023/06/11 03:22:35;;;;;;;8.73;5.97;;;;;;;14.72;100.00;101625.31;5072052;28;20098;-80
2023/06/11 03:25:01;;;;;;;8.65;6.43;;;;;;;14.71;100.00;101621.78;5073607;28;20024;-81
2023/06/11 03:27:26;;;;;;;10.77;6.13;;;;;;;14.71;100.00;101624.47;5073476;28;20065;-80
2023/06/11 03:29:51;;;;;;;9.57;6.60;;;;;;;14.72;100.00;101619.94;5072703;28;20043;-80
2023/06/11 03:32:17;;;;;;;9.93;6.78;;;;;;;14.70;100.00;101621.94;5072054;28;20490;-80
2023/06/11 03:34:43;;;;;;;9.90;6.65;;;;;;;14.71;100.00;101618.28;5073687;28;20028;-80
2023/06/11 03:37:08;;;;;;;11.02;7.13;;;;;;;14.69;100.00;101618.44;5073196;28;20024;-80
2023/06/11 03:39:34;;;;;;;8.77;6.95;;;;;;;14.69;100.00;101618.44;5073162;28;20040;-80
2023/06/11 03:41:59;;;;;;;13.85;6.88;;;;;;;14.68;100.00;101616.72;5073120;28;20406;-82
2023/06/11 03:44:25;;;;;;;7.90;6.68;;;;;;;14.69;100.00;101623.78;5073838;28;20039;-82
2023/06/11 03:46:50;;;;;;;10.18;7.38;;;;;;;14.70;100.00;101619.25;5073142;28;20032;-79
2023/06/11 03:49:15;;;;;;;8.85;6.55;;;;;;;14.70;100.00;101617.41;5073825;28;20449;-82
2023/06/11 03:51:41;;;;;;;8.57;6.60;;;;;;;14.71;100.00;101631.69;5071380;28;20043;-80
2023/06/11 03:54:06;;;;;;;11.20;7.45;;;;;;;14.71;100.00;101632.50;5073179;28;20028;-82
2023/06/11 03:56:32;;;;;;;10.82;7.35;;;;;;;14.72;100.00;101628.84;5071817;28;20376;-80
2023/06/11 03:58:57;;;;;;;10.18;7.05;;;;;;;14.74;100.00;101628.69;5071633;28;20043;-80
2023/06/11 04:01:23;;;;;;;8.63;7.03;;;;;;;14.74;100.00;101628.69;5087082;28;20142;-82
2023/06/11 04:03:48;;;;;;;8.75;7.25;;;;;;;14.75;100.00;101633.03;5093100;28;20076;-80
2023/06/11 04:06:15;;;;;;;10.02;6.95;;;;;;;14.78;100.00;101632.78;5093221;28;20056;-80
2023/06/11 04:08:40;;;;;;;11.90;7.10;;;;;;;14.79;100.00;101634.44;5093307;28;20133;-80
2023/06/11 04:11:06;;;;;;;7.63;6.82;;;;;;;14.81;100.00;101630.63;5057761;28;20429;-80
2023/06/11 04:13:31;;;;;;;9.98;7.18;;;;;;;14.84;100.00;101629.50;5092041;28;20098;-79
2023/06/11 04:15:56;;;;;;;9.48;6.93;;;;;;;14.87;100.00;101631.88;5092711;28;20028;-80
2023/06/11 04:18:22;;;;;;;11.65;7.10;;;;;;;14.90;100.00;101636.94;5092878;28;20040;-80
2023/06/11 04:20:47;;;;;;;11.55;7.03;;;;;;;14.91;100.00;101633.28;5074418;28;20128;-80
2023/06/11 04:23:13;;;;;;;11.52;7.22;;;;;;;14.93;100.00;101641.19;5092974;28;20035;-79
2023/06/11 04:25:43;;;;;;;11.07;7.10;;;;;;;14.95;100.00;101640.00;5092820;28;20032;-80
2023/06/11 04:28:09;;;;;;;12.02;6.93;;;;;;;14.98;100.00;101646.91;5092558;28;20479;-79
2023/06/11 04:30:34;;;;;;;11.88;7.30;;;;;;;15.02;100.00;101659.03;5074354;28;20039;-79
2023/06/11 04:33:03;;;;;;;16.92;7.93;;;;;;;15.06;100.00;101662.25;5092525;28;20043;-79
2023/06/11 04:35:29;;;;;;;12.02;7.30;;;;;;;15.12;100.00;101667.88;5092791;28;20407;-80
2023/06/11 04:37:55;;;;;;;10.70;7.55;;;;;;;15.18;100.00;101663.72;5092236;28;20047;-79
2023/06/11 04:40:23;;;;;;;8.85;7.40;;;;;;;15.24;100.00;101643.53;5092455;28;20115;-79
2023/06/11 04:42:49;;;;;;;11.88;7.90;;;;;;;15.32;100.00;101646.31;5092333;28;20036;-80
2023/06/11 04:45:18;;;;;;;9.18;7.65;;;;;;;15.38;100.00;101648.41;5092048;28;20028;-80
2023/06/11 04:47:44;;;;;;;10.85;7.90;;;;;;;15.46;100.00;101653.81;5092314;28;20028;-79
2023/06/11 04:50:09;;;;;;;10.30;7.88;;;;;;;15.52;100.00;101652.38;5074606;28;20040;-80
2023/06/11 04:52:37;;;;;;;11.65;7.38;;;;;;;15.58;100.00;101659.81;5092998;28;20069;-80
2023/06/11 04:55:03;;;;;;;14.07;8.30;;;;;;;15.63;100.00;101654.00;5092093;28;20036;-80
2023/06/11 04:57:32;;;;;;;10.85;7.88;;;;;;;15.69;100.00;101651.56;5092347;28;20103;-80
2023/06/11 04:59:58;;;;;;;10.00;8.00;;;;;;;15.76;100.00;101665.19;5091806;28;20028;-79
2023/06/11 05:02:25;;;;;;;11.15;8.23;;;;;;;15.81;100.00;101657.56;5073615;28;20059;-80
2023/06/11 05:04:53;;;;;;;9.98;8.02;;;;;;;15.88;100.00;101654.28;5092566;28;20160;-81
2023/06/11 05:07:19;;;;;;;12.55;8.30;;;;;;;15.93;100.00;101650.13;5092112;28;20040;-81
2023/06/11 05:09:45;;;;;;;13.25;7.78;;;;;;;15.99;100.00;101652.19;5074215;28;20357;-82
2023/06/11 05:12:10;;;;;;;11.85;7.80;;;;;;;16.09;100.00;101670.03;5092193;28;20027;-82
2023/06/11 05:14:36;;;;;;;11.85;8.35;;;;;;;16.16;100.00;101657.69;5092344;28;20475;-81
2023/06/11 05:17:02;;;;;;;10.68;9.18;;;;;;;16.24;100.00;101656.91;5075906;28;20030;-81
2023/06/11 05:19:28;;;;;;;15.32;8.88;;;;;;;16.32;100.00;101657.81;5094421;28;20035;-82
2023/06/11 05:21:53;;;;;;;17.02;9.20;;;;;;;16.43;100.00;101664.75;5092123;28;20031;-81
2023/06/11 05:24:20;;;;;;;11.68;8.65;;;;;;;16.53;100.00;101662.00;5095202;28;20076;-81
2023/06/11 05:26:45;;;;;;;11.52;8.93;;;;;;;16.62;100.00;101661.03;5096838;28;20122;-82
2023/06/11 05:29:11;;;;;;;9.73;8.60;;;;;;;16.70;100.00;101653.00;5096375;28;20063;-81
2023/06/11 05:31:36;;;;;;;14.68;9.82;;;;;;;16.82;100.00;101650.03;5095780;28;20547;-82
2023/06/11 05:34:02;;;;;;;13.70;9.50;;;;;;;16.95;100.00;101650.47;5096141;28;20073;-81
2023/06/11 05:36:28;;;;;;;10.00;8.45;;;;;;;17.07;100.00;101661.78;5077905;28;20047;-82
2023/06/11 05:38:54;;;;;;;16.25;9.10;;;;;;;17.21;100.00;101661.19;5095821;28;20384;-82
2023/06/11 05:41:20;;;;;;;10.82;9.55;;;;;;;17.36;100.00;101660.53;5095789;28;20028;-82
2023/06/11 05:43:46;;;;;;;10.52;8.85;;;;;;;17.50;100.00;101665.28;5096271;28;20028;-82
2023/06/11 05:46:13;;;;;;;12.60;9.10;;;;;;;17.68;100.00;101667.84;5095698;28;20035;-82
2023/06/11 05:48:39;;;;;;;13.48;9.70;;;;;;;17.86;100.00;101673.06;5096113;28;20040;-82
2023/06/11 05:51:04;;;;;;;10.48;8.77;;;;;;;18.06;100.00;101668.22;5095385;28;20097;-81
2023/06/11 05:53:30;;;;;;;12.77;9.52;;;;;;;18.25;100.00;101668.91;5095909;28;20409;-82
2023/06/11 05:55:55;;;;;;;13.43;9.80;;;;;;;18.46;100.00;101661.13;5095496;28;20110;-82
2023/06/11 05:58:22;;;;;;;14.50;9.23;;;;;;;18.72;100.00;101673.53;5095313;28;20499;-82
2023/06/11 06:00:47;;;;;;;13.23;9.27;;;;;;;18.97;100.00;101668.09;5095035;28;20052;-82
2023/06/11 06:03:13;;;;;;;11.32;8.93;;;;;;;19.21;100.00;101661.75;5095359;28;20349;-82
2023/06/11 06:05:38;;;;;;;11.85;8.65;;;;;;;19.41;100.00;101654.06;5095896;28;20108;-82
2023/06/11 06:08:04;;;;;;;17.30;9.68;;;;;;;19.62;100.00;101666.09;5095706;28;20123;-82
2023/06/11 06:10:29;;;;;;;13.25;9.40;;;;;;;19.83;100.00;101666.28;5076896;28;20134;-81
2023/06/11 06:12:54;;;;;;;12.05;8.95;;;;;;;20.01;100.00;101655.19;5095226;28;20036;-82
2023/06/11 06:15:20;;;;;;;11.23;8.32;;;;;;;20.24;100.00;101665.97;5094990;28;20028;-81
2023/06/11 06:17:45;;;;;;;14.35;9.20;;;;;;;20.43;100.00;101669.97;5094842;28;20039;-82
2023/06/11 06:20:11;;;;;;;12.82;8.50;;;;;;;20.66;100.00;101666.41;5095079;28;20105;-82
2023/06/11 06:22:41;;;;;;;12.68;8.75;;;;;;;20.90;100.00;101669.84;5095464;28;20039;-83
2023/06/11 06:25:06;;;;;;;12.75;8.75;;;;;;;21.17;100.00;101664.78;5094949;28;20096;-81
2023/06/11 06:27:32;;;;;;;15.05;8.82;;;;;;;21.42;100.00;101668.00;5095526;28;20044;-83
2023/06/11 06:29:57;;;;;;;12.57;8.38;;;;;;;21.69;100.00;101669.16;5095510;28;20042;-83
2023/06/11 06:32:22;;;;;;;11.57;8.13;;;;;;;21.87;100.00;101663.28;5094495;28;20028;-82
2023/06/11 06:34:48;;;;;;;10.82;7.70;;;;;;;22.04;100.00;101665.72;5077031;28;20068;-83
2023/06/11 06:37:13;;;;;;;11.07;8.30;;;;;;;22.16;100.00;101666.88;5076962;28;20529;-81
2023/06/11 06:39:38;;;;;;;18.55;7.82;;;;;;;22.32;100.00;101668.50;5095932;28;20414;-82
2023/06/11 06:42:04;;;;;;;9.32;7.15;;;;;;;22.45;100.00;101659.59;5077331;28;20048;-82
2023/06/11 06:44:30;;;;;;;10.90;7.00;;;;;;;22.57;100.00;101663.44;5077850;28;20076;-82
2023/06/11 06:46:55;;;;;;;8.20;6.57;;;;;;;22.70;100.00;101671.66;5078218;28;20448;-83
2023/06/11 06:49:21;;;;;;;12.70;6.93;;;;;;;22.84;100.00;101666.28;5095716;28;20381;-81
2023/06/11 06:51:46;;;;;;;9.13;7.13;;;;;;;22.93;100.00;101667.81;5096089;28;20449;-82
2023/06/11 06:54:12;;;;;;;9.13;7.22;;;;;;;23.10;100.00;101671.06;5078044;28;20113;-82
2023/06/11 06:56:37;;;;;;;11.07;6.80;;;;;;;23.27;100.00;101668.00;5095290;28;20039;-83
2023/06/11 06:59:03;;;;;;;10.05;7.55;;;;;;;23.32;100.00;101666.34;5095229;28;20028;-82
2023/06/11 07:01:28;;;;;;;15.20;7.25;;;;;;;23.35;100.00;101665.94;5095535;28;20052;-81
2023/06/11 07:03:53;;;;;;;9.77;6.95;;;;;;;23.47;100.00;101670.75;5095621;28;20198;-84
2023/06/11 07:06:19;;;;;;;11.45;7.82;;;;;;;23.62;100.00;101670.56;5059964;28;20067;-80
2023/06/11 07:08:44;;;;;;;11.88;6.85;;;;;;;23.65;100.00;101673.75;5076684;28;20042;-77
2023/06/11 07:11:10;;;;;;;11.55;6.97;;;;;;;23.73;100.00;101675.41;5094884;28;20044;-80
2023/06/11 07:13:35;;;;;;;11.82;7.07;;;;;;;23.68;100.00;101681.47;5076962;28;20040;-79
2023/06/11 07:16:01;;;;;;;17.00;7.05;;;;;;;23.71;100.00;101682.94;5095272;28;20032;-77
2023/06/11 07:18:27;;;;;;;11.30;6.75;;;;;;;23.73;100.00;101670.00;5094653;28;20055;-76
2023/06/11 07:20:53;;;;;;;10.20;6.78;;;;;;;23.96;100.00;101676.94;5094664;28;20131;-76
2023/06/11 07:23:18;;;;;;;9.80;7.22;;;;;;;24.14;100.00;101676.31;5094578;28;20136;-75
2023/06/11 07:25:44;;;;;;;10.43;7.15;;;;;;;24.29;100.00;101680.50;5094944;28;20464;-76
2023/06/11 07:28:10;;;;;;;7.85;6.65;;;;;;;24.41;100.00;101677.97;5076433;28;20040;-79
2023/06/11 07:30:36;;;;;;;8.10;6.78;;;;;;;24.54;100.00;101677.13;5094198;28;20078;-78
2023/06/11 07:33:01;;;;;;;9.70;6.97;;;;;;;24.64;100.00;101680.25;5094055;28;20032;-76
2023/06/11 07:35:27;;;;;;;14.85;7.10;;;;;;;24.84;100.00;101678.53;5093813;28;20027;-77
2023/06/11 07:37:53;;;;;;;11.07;7.00;;;;;;;25.03;100.00;101674.09;5094027;28;20099;-76
2023/06/11 07:40:19;;;;;;;9.23;6.40;;;;;;;25.27;100.00;101672.50;5094248;28;20467;-74
2023/06/11 07:42:46;;;;;;;8.35;6.75;;;;;;;25.39;100.00;101672.69;5076467;28;20055;-79
2023/06/11 07:45:15;;;;;;;7.88;6.95;;;;;;;25.57;96.03;101680.13;5094491;28;20031;-77
2023/06/11 07:47:41;;;;;;;13.43;6.75;;;;;;;25.70;100.00;101671.88;5093994;28;20028;-74
2023/06/11 07:50:07;;;;;;;8.85;7.05;;;;;;;25.78;93.39;101676.22;5094082;28;20042;-76
2023/06/11 07:52:33;;;;;;;8.60;6.65;;;;;;;25.94;91.04;101674.84;5094289;28;20346;-78
2023/06/11 07:54:58;;;;;;;11.75;6.47;;;;;;;26.01;91.11;101673.78;5076132;28;20043;-78
2023/06/11 07:57:24;;;;;;;9.15;6.43;;;;;;;26.08;92.28;101671.00;5093845;28;20057;-78
2023/06/11 07:59:50;;;;;;;9.07;6.50;;;;;;;26.08;91.47;101668.28;5076329;28;20032;-78
2023/06/11 08:02:15;;;;;;;8.48;6.70;;;;;;;26.21;92.15;101670.03;5094073;28;20048;-77
2023/06/11 08:04:41;;;;;;;8.38;7.05;;;;;;;26.14;84.18;101663.81;5094235;28;20039;-78
2023/06/11 08:07:07;;;;;;;7.75;6.20;;;;;;;26.29;96.58;101669.78;5094178;28;20040;-74
2023/06/11 08:09:36;;;;;;;6.88;6.18;;;;;;;26.45;88.28;101667.50;5093771;28;20040;-76
2023/06/11 08:12:03;;;;;;;8.10;6.25;;;;;;;26.59;82.35;101660.88;5093530;28;20043;-76
2023/06/11 08:14:28;;;;;;;8.65;6.65;;;;;;;26.62;90.74;101654.09;5093502;28;20032;-77
2023/06/11 08:16:53;;;;;;;13.80;6.63;;;;;;;26.78;92.81;101661.72;5093796;28;20035;-76
2023/06/11 08:19:19;;;;;;;12.00;6.82;;;;;;;26.94;86.02;101654.81;5093477;28;20457;-76
2023/06/11 08:21:46;;;;;;;8.13;6.50;;;;;;;27.13;89.77;101660.28;5093467;28;20036;-73
2023/06/11 08:24:12;;;;;;;9.27;6.25;;;;;;;27.31;86.70;101657.50;5093885;28;20043;-72
2023/06/11 08:26:37;;;;;;;9.60;6.63;;;;;;;27.41;76.31;101662.44;5093271;28;20028;-73
2023/06/11 08:29:03;;;;;;;9.93;6.82;;;;;;;27.31;73.05;101654.75;5093318;28;20469;-71
2023/06/11 08:31:29;;;;;;;7.90;6.20;;;;;;;27.39;81.71;101657.19;5093064;28;20063;-71
2023/06/11 08:33:54;;;;;;;8.93;6.43;;;;;;;27.56;77.61;101653.81;5093506;28;20129;-73
2023/06/11 08:36:22;;;;;;;8.90;6.20;;;;;;;27.76;83.61;101658.97;5075083;28;20039;-72
2023/06/11 08:38:48;;;;;;;10.10;6.30;;;;;;;27.83;76.65;101658.84;5058849;28;20069;-72
2023/06/11 08:41:17;;;;;;;13.18;6.40;;;;;;;27.89;77.08;101649.72;5093229;28;20024;-72
2023/06/11 08:43:42;;;;;;;6.95;6.00;;;;;;;27.99;77.56;101649.97;5093179;28;20035;-72
2023/06/11 08:46:14;;;;;;;8.20;6.03;;;;;;;28.11;84.46;101653.59;5093085;28;20032;-74
2023/06/11 08:48:42;;;;;;;8.52;6.38;;;;;;;28.36;79.08;101649.75;5093308;28;20074;-73
2023/06/11 08:51:10;;;;;;;10.65;6.00;;;;;;;28.74;85.77;101653.06;5092860;28;20024;-73
2023/06/11 08:53:36;;;;;;;8.88;6.30;;;;;;;29.22;79.83;101656.56;5075498;28;20032;-72
2023/06/11 08:56:01;;;;;;;8.73;6.40;;;;;;;29.45;70.45;101656.41;5093217;28;20472;-72
2023/06/11 08:58:31;;;;;;;8.95;6.20;;;;;;;29.75;70.19;101649.81;5093020;28;20071;-72
2023/06/11 09:00:56;;;;;;;9.88;6.03;;;;;;;30.09;68.37;101654.50;5093505;28;20088;-72
2023/06/11 09:03:21;;;;;;;9.95;6.30;;;;;;;30.25;63.10;101646.25;5094302;28;20075;-73
2023/06/11 09:05:47;;;;;;;8.57;6.07;;;;;;;30.54;69.81;101643.38;5093702;28;20028;-74
2023/06/11 09:08:13;;;;;;;12.23;7.05;;;;;;;30.77;61.48;101636.00;5074877;28;20127;-74
2023/06/11 09:10:49;;;;;;;9.98;6.50;;;;;;;30.95;60.57;101641.16;5093033;28;20039;-74
2023/06/11 09:13:15;;;;;;;8.10;6.35;;;;;;;31.00;58.33;101628.59;5093347;28;20499;-74
2023/06/11 09:15:49;;;;;;;9.85;6.32;;;;;;;31.11;55.24;101633.09;5093005;28;20557;-74
2023/06/11 09:18:24;;;;;;;8.30;6.75;;;;;;;31.36;58.31;101637.22;5093060;28;20044;-74
2023/06/11 09:20:57;;;;;;;15.82;7.22;;;;;;;31.34;53.22;101631.97;5075229;28;20389;-74
2023/06/11 09:23:34;;;;;;;12.68;6.78;;;;;;;31.39;52.94;101637.50;5092871;28;20420;-74
2023/06/11 09:26:00;;;;;;;10.90;6.40;;;;;;;31.62;53.61;101633.63;5093207;28;20032;-75
2023/06/11 09:28:31;;;;;;;9.50;6.30;;;;;;;31.85;55.16;101633.53;5074462;28;20073;-76
2023/06/11 09:30:58;;;;;;;15.88;6.35;;;;;;;32.00;54.63;101637.22;5075419;28;20304;-75
2023/06/11 09:33:24;;;;;;;6.90;6.13;;;;;;;32.12;51.33;101645.31;5074748;28;20085;-75
2023/06/11 09:35:50;;;;;;;7.18;5.90;;;;;;;32.40;56.51;101636.97;5074996;28;20025;-77
2023/06/11 09:38:20;;;;;;;8.88;6.20;;;;;;;32.38;51.54;101636.38;5093247;28;20035;-76
2023/06/11 09:40:50;;;;;;;7.47;6.15;;;;;;;32.47;50.40;101634.78;5092608;28;20028;-76
2023/06/11 09:43:19;;;;;;;;;;;;;;;32.50;51.31;101639.75;5093355;28;20031;-76
2023/06/11 09:45:45;;;;;;;10.43;6.68;;;;;;;32.53;49.11;101644.75;5093099;28;19912;-76
2023/06/11 09:48:12;;;;;;;6.97;5.97;;;;;;;32.34;48.49;101653.44;5093183;28;20144;-76
2023/06/11 09:50:38;;;;;;;9.80;6.07;;;;;;;32.50;48.77;101648.00;5092261;28;20032;-75
2023/06/11 09:53:05;;;;;;;6.47;5.88;;;;;;;32.53;49.53;101647.50;5092065;28;20181;-76
2023/06/11 09:55:35;;;;;;;15.15;6.47;;;;;;;32.65;50.66;101645.34;5074035;28;20052;-74
2023/06/11 09:58:01;;;;;;;11.30;6.15;;;;;;;32.84;50.05;101653.16;5074350;28;20047;-75
2023/06/11 10:00:27;;;;;;;9.68;6.10;;;;;;;32.61;46.32;101654.41;5092366;28;20424;-73
2023/06/11 10:02:53;;;;;;;6.32;5.72;;;;;;;32.68;46.65;101655.84;5093180;28;20139;-74
2023/06/11 10:05:19;;;;;;;10.75;5.75;;;;;;;32.94;51.13;101655.13;5092238;28;20114;-74
2023/06/11 10:07:57;;;;;;;9.55;5.78;;;;;;;33.22;48.21;101653.84;5092403;28;20081;-73
2023/06/11 10:10:24;;;;;;;8.35;6.00;;;;;;;33.45;48.49;101654.44;5092621;28;20028;-75
2023/06/11 10:12:51;;;;;;;10.82;5.72;;;;;;;33.41;47.65;101650.56;5096875;28;20124;-75
2023/06/11 10:15:17;;;;;;;8.65;5.63;;;;;;;33.63;45.35;101653.06;5077942;28;20513;-76
2023/06/11 10:17:49;;;;;;;9.68;6.00;;;;;;;33.76;45.71;101652.56;5096030;28;20115;-75
2023/06/11 10:20:34;;;;;;;5.88;5.25;;;;;;;33.89;45.59;101646.47;5078245;28;20040;-75
2023/06/11 10:23:10;;;;;;;8.50;5.47;;;;;;;34.06;46.66;101643.41;5062319;28;20028;-83
2023/06/11 10:25:39;;;;;;;7.90;5.68;;;;;;;34.41;44.61;101644.47;5096325;28;20039;-84
2023/06/11 10:28:05;;;;;;;8.30;5.38;;;;;;;34.52;41.90;101638.91;5096242;28;20028;-84
2023/06/11 10:30:31;;;;;;;6.72;5.07;;;;;;;34.76;43.77;101641.84;5096239;28;20452;-78
2023/06/11 10:32:58;;;;;;;6.90;5.25;;;;;;;34.90;43.50;101639.31;5096347;28;20035;-82
2023/06/11 10:35:32;;;;;;;6.90;4.82;;;;;;;35.00;40.24;101632.91;5096017;28;20032;-84
2023/06/11 10:38:06;;;;;;;5.38;4.85;;;;;;;35.05;40.47;101638.41;5096577;28;20047;-83
2023/06/11 10:40:36;;;;;;;7.10;5.10;;;;;;;34.96;38.74;101632.63;5096363;28;20412;-79
2023/06/11 10:43:05;;;;;;;5.78;4.82;;;;;;;34.97;38.98;101634.31;5077576;28;20035;-80
2023/06/11 10:45:35;;;;;;;8.07;4.90;;;;;;;35.01;39.17;101634.53;5095507;28;20095;-77
2023/06/11 10:48:01;;;;;;;10.35;4.97;;;;;;;35.39;38.53;101632.94;5095230;28;20034;-79
2023/06/11 10:50:31;;;;;;;10.82;4.65;;;;;;;35.39;36.57;101630.16;5095194;28;20040;-78
2023/06/11 10:53:02;;;;;;;6.63;4.45;;;;;;;35.50;36.91;101625.38;5095684;28;20024;-77
2023/06/11 10:55:32;;;;;;;6.70;4.53;;;;;;;35.91;37.74;101625.03;5095218;28;20156;-79
2023/06/11 10:57:59;;;;;;;10.02;4.80;;;;;;;36.33;35.79;101625.47;5094995;28;20028;-78
2023/06/11 11:00:28;;;;;;;11.43;4.50;;;;;;;36.53;35.83;101627.16;5094694;28;20028;-76
2023/06/11 11:02:56;;;;;;;14.68;4.90;;;;;;;36.63;35.32;101628.97;5094929;28;20056;-85
2023/06/11 11:05:22;;;;;;;10.23;4.70;;;;;;;36.59;35.93;101625.13;5094547;28;20034;-78
2023/06/11 11:07:48;;;;;;;8.23;4.80;;;;;;;37.19;35.24;101625.44;5094798;28;20107;-77
2023/06/11 11:10:20;;;;;;;6.97;4.82;;;;;;;37.28;36.30;101628.38;5076569;28;20418;-79
2023/06/11 11:12:46;;;;;;;6.43;4.72;;;;;;;37.60;36.16;101628.69;5094681;28;20036;-74
2023/06/11 11:15:13;;;;;;;5.47;4.15;;;;;;;37.84;32.86;101620.25;5095092;28;20052;-76